createdAt,value
2018-07-08T00:02:00.117Z,83.05
2018-07-08T00:04:30.247Z,82.62
2018-07-08T00:07:00.151Z,82.99
2018-07-08T00:09:30.219Z,83.71
2018-07-08T00:12:00.281Z,82.78
2018-07-08T00:14:30.156Z,82.86
2018-07-08T00:17:00.241Z,83.15
2018-07-08T00:19:30.398Z,82.90
2018-07-08T00:22:00.254Z,82.99
2018-07-08T00:24:30.521Z,82.82
2018-07-08T00:27:00.509Z,83.01
2018-07-08T00:29:30.407Z,83.25
2018-07-08T00:32:00.320Z,83.74
2018-07-08T00:57:05.777Z,82.88
2018-07-08T00:59:35.499Z,84.49
2018-07-08T01:02:04.706Z,84.90
2018-07-08T01:04:33.784Z,85.49
2018-07-08T01:07:02.930Z,84.78
2018-07-08T01:09:32.039Z,84.84
2018-07-08T01:12:01.222Z,84.70
2018-07-08T01:14:30.896Z,85.71
2018-07-08T01:17:00.852Z,85.44
2018-07-08T01:19:31.790Z,85.79
2018-07-08T01:22:01.009Z,86.35
2018-07-08T01:24:31.188Z,86.23
2018-07-08T01:27:00.902Z,86.21
2018-07-08T01:29:30.251Z,86.02
2018-07-08T01:31:59.290Z,86.02
2018-07-08T01:34:28.326Z,85.63
2018-07-08T01:36:57.381Z,85.95
2018-07-08T01:39:26.864Z,86.31
2018-07-08T01:41:56.114Z,86.18
2018-07-08T01:44:25.719Z,86.38
2018-07-08T01:46:54.701Z,86.57
2018-07-08T01:49:24.231Z,86.82
2018-07-08T01:51:53.814Z,86.22
2018-07-08T01:54:23.221Z,87.50
2018-07-08T01:56:52.719Z,87.08
2018-07-08T01:59:21.887Z,86.85
2018-07-08T02:01:51.335Z,87.64
2018-07-08T02:04:20.899Z,87.35
2018-07-08T02:06:49.937Z,87.34
2018-07-08T02:09:19.489Z,87.23
2018-07-08T02:11:49.172Z,87.45
2018-07-08T02:14:18.203Z,87.13
2018-07-08T02:16:47.599Z,87.08
2018-07-08T02:19:17.347Z,87.56
2018-07-08T02:21:46.809Z,87.50
2018-07-08T02:24:16.073Z,86.96
2018-07-08T02:26:45.169Z,87.89
2018-07-08T02:29:14.321Z,87.29
2018-07-08T02:31:43.703Z,87.35
2018-07-08T02:34:12.848Z,87.92
2018-07-08T02:36:41.943Z,87.37
2018-07-08T02:39:10.981Z,87.86
2018-07-08T02:41:40.040Z,88.06
2018-07-08T02:44:09.094Z,88.06
2018-07-08T02:46:38.166Z,88.01
2018-07-08T02:49:07.220Z,88.66
2018-07-08T02:51:36.548Z,88.19
2018-07-08T02:54:05.608Z,88.43
2018-07-08T02:56:34.743Z,88.01
2018-07-08T02:59:03.924Z,88.43
2018-07-08T03:01:33.156Z,88.35
2018-07-08T03:04:03.126Z,88.18
2018-07-08T03:06:33.161Z,88.48
2018-07-08T03:09:03.180Z,88.47
2018-07-08T03:11:33.300Z,88.17
2018-07-08T03:14:03.204Z,87.92
2018-07-08T03:16:33.280Z,87.55
2018-07-08T03:19:03.197Z,87.69
2018-07-08T03:21:33.308Z,87.51
2018-07-08T03:24:03.496Z,87.17
2018-07-08T03:26:33.352Z,87.98
2018-07-08T03:29:03.642Z,88.05
2018-07-08T03:31:33.606Z,88.12
2018-07-08T03:34:03.896Z,87.77
2018-07-08T03:36:33.431Z,88.06
2018-07-08T03:39:03.861Z,88.08
2018-07-08T03:41:33.571Z,87.88
2018-07-08T03:44:03.976Z,88.27
2018-07-08T03:46:34.302Z,88.45
2018-07-08T03:49:03.992Z,88.45
2018-07-08T03:51:33.854Z,88.62
2018-07-08T03:54:03.974Z,88.31
2018-07-08T03:56:33.550Z,88.25
2018-07-08T04:18:22.689Z,88.67
2018-07-08T04:20:52.065Z,88.96
2018-07-08T04:23:21.137Z,88.91
2018-07-08T04:25:50.185Z,88.70
2018-07-08T04:28:19.229Z,88.38
2018-07-08T04:30:48.264Z,88.06
2018-07-08T04:33:17.270Z,87.51
2018-07-08T04:35:46.360Z,87.00
2018-07-08T04:38:15.400Z,87.21
2018-07-08T04:40:44.834Z,86.69
2018-07-08T04:43:14.013Z,86.95
2018-07-08T04:45:43.544Z,87.00
2018-07-08T04:48:12.921Z,87.10
2018-07-08T04:50:42.128Z,87.89
2018-07-08T04:53:11.221Z,87.64
2018-07-08T04:55:40.239Z,87.47
2018-07-08T04:58:09.295Z,87.71
2018-07-08T05:01:09.039Z,87.72
2018-07-08T05:03:38.105Z,86.74
2018-07-08T05:06:08.644Z,86.96
2018-07-08T05:08:37.758Z,86.00
2018-07-08T05:11:07.003Z,85.94
2018-07-08T05:13:36.209Z,85.65
2018-07-08T05:16:05.416Z,86.67
2018-07-08T05:18:34.464Z,86.21
2018-07-08T05:21:04.569Z,86.42
2018-07-08T05:23:34.423Z,86.19
2018-07-08T05:26:04.551Z,85.80
2018-07-08T05:28:34.473Z,84.37
2018-07-08T05:31:04.428Z,83.27
2018-07-08T05:33:34.479Z,84.43
2018-07-08T05:36:04.697Z,83.72
2018-07-08T05:38:34.521Z,82.40
2018-07-08T05:41:04.577Z,82.17
2018-07-08T05:43:33.618Z,81.51
2018-07-08T05:46:02.662Z,81.86
2018-07-08T05:48:32.138Z,81.08
2018-07-08T05:51:01.259Z,81.41
2018-07-08T05:53:30.710Z,81.09
2018-07-08T05:55:59.776Z,81.04
2018-07-08T05:58:29.368Z,81.42
2018-07-08T06:00:58.804Z,80.69
2018-07-08T06:03:28.325Z,80.53
2018-07-08T06:05:57.692Z,80.04
2018-07-08T06:08:26.808Z,80.02
2018-07-08T06:10:55.880Z,79.09
2018-07-08T06:13:25.009Z,78.60
2018-07-08T06:15:54.116Z,79.08
2018-07-08T06:18:23.208Z,79.07
2018-07-08T06:20:52.429Z,77.19
2018-07-08T06:23:22.167Z,76.27
2018-07-08T06:25:52.834Z,77.06
2018-07-08T06:28:23.555Z,77.66
2018-07-08T06:30:54.257Z,78.04
2018-07-08T06:33:24.922Z,77.70
2018-07-08T06:35:55.268Z,77.13
2018-07-08T06:38:25.639Z,75.40
2018-07-08T06:40:56.347Z,75.37
2018-07-08T06:43:26.910Z,75.60
2018-07-08T06:45:57.238Z,76.07
2018-07-08T06:48:28.122Z,75.00
2018-07-08T06:50:58.896Z,73.05
2018-07-08T06:53:29.612Z,70.61
2018-07-08T06:56:00.371Z,70.51
2018-07-08T06:58:32.004Z,70.57
2018-07-08T07:01:02.516Z,71.34
2018-07-08T07:03:32.837Z,69.86
2018-07-08T07:06:03.524Z,70.89
2018-07-08T07:08:34.315Z,71.07
2018-07-08T07:11:05.352Z,70.73
2018-07-08T07:13:36.310Z,71.28
2018-07-08T07:16:08.079Z,67.22
2018-07-08T07:18:38.216Z,64.08
2018-07-08T07:21:08.996Z,61.22
2018-07-08T07:23:39.172Z,64.43
2018-07-08T07:26:09.513Z,64.12
2018-07-08T07:28:40.126Z,62.62
2018-07-08T07:32:21.548Z,62.65
2018-07-08T07:34:51.422Z,62.62
2018-07-08T07:37:22.176Z,62.61
2018-07-08T07:39:52.746Z,62.55
2018-07-08T07:42:23.189Z,60.45
2018-07-08T07:44:53.529Z,61.77
2018-07-08T07:47:24.266Z,60.87
2018-07-08T07:49:54.572Z,61.43
2018-07-08T07:52:25.369Z,59.96
2018-07-08T07:54:55.633Z,61.60
2018-07-08T07:57:25.960Z,59.04
2018-07-08T07:59:56.300Z,61.49
2018-07-08T08:02:27.063Z,60.34
2018-07-08T08:05:01.052Z,59.08
2018-07-08T08:07:31.057Z,59.47
2018-07-08T08:10:01.682Z,60.12
2018-07-08T08:12:31.962Z,58.75
2018-07-08T08:15:02.603Z,59.63
2018-07-08T08:17:33.255Z,57.22
2018-07-08T08:20:03.894Z,56.85
2018-07-08T08:22:34.125Z,56.64
2018-07-08T08:25:04.764Z,55.00
2018-07-08T08:27:35.660Z,56.99
2018-07-08T08:30:06.427Z,57.50
2018-07-08T08:32:37.958Z,56.77
2018-07-08T08:35:10.508Z,55.42
2018-07-08T08:37:41.918Z,52.00
2018-07-08T08:40:12.894Z,51.93
2018-07-08T08:42:43.338Z,50.97
2018-07-08T08:45:14.660Z,52.20
2018-07-08T08:47:44.848Z,54.12
2018-07-08T08:50:15.893Z,48.79
2018-07-08T08:52:46.513Z,51.55
2018-07-08T08:55:16.936Z,55.43
2018-07-08T08:57:47.347Z,52.08
2018-07-08T09:00:18.675Z,46.64
2018-07-08T09:02:49.210Z,49.86
2018-07-08T09:05:19.919Z,49.68
2018-07-08T09:07:50.972Z,50.39
2018-07-08T09:10:21.460Z,50.91
2018-07-08T09:12:51.533Z,51.99
2018-07-08T09:15:22.126Z,53.59
2018-07-08T09:17:53.083Z,47.12
2018-07-08T09:20:23.467Z,48.75
2018-07-08T09:22:55.531Z,53.04
2018-07-08T09:25:25.371Z,49.26
2018-07-08T09:27:56.137Z,51.35
2018-07-08T09:30:25.995Z,49.75
2018-07-08T09:32:56.388Z,49.22
2018-07-08T09:35:27.554Z,48.67
2018-07-08T09:37:58.200Z,51.49
2018-07-08T09:40:28.435Z,46.62
2018-07-08T09:42:59.104Z,51.83
2018-07-08T09:45:30.919Z,52.58
2018-07-08T09:48:01.903Z,48.66
2018-07-08T09:50:32.029Z,48.04
2018-07-08T09:53:02.231Z,48.10
2018-07-08T09:55:32.966Z,51.14
2018-07-08T09:58:03.467Z,50.16
2018-07-08T10:00:33.905Z,47.20
2018-07-08T10:03:04.700Z,48.41
2018-07-08T10:05:36.077Z,49.76
2018-07-08T10:08:07.276Z,47.69
2018-07-08T10:10:38.743Z,50.38
2018-07-08T10:13:09.052Z,51.25
2018-07-08T10:15:39.692Z,49.76
2018-07-08T10:18:09.970Z,47.46
2018-07-08T10:20:40.618Z,47.71
2018-07-08T10:23:11.408Z,52.84
2018-07-08T10:25:43.273Z,52.27
2018-07-08T10:28:18.937Z,49.23
2018-07-08T10:30:49.789Z,46.18
2018-07-08T10:33:20.405Z,46.94
2018-07-08T10:36:05.149Z,47.97
2018-07-08T10:38:36.455Z,50.03
2018-07-08T10:41:06.937Z,51.78
2018-07-08T10:43:37.964Z,51.52
2018-07-08T10:46:09.005Z,47.62
2018-07-08T10:48:39.604Z,50.80
2018-07-08T10:51:10.330Z,50.65
2018-07-08T10:53:41.117Z,48.17
2018-07-08T10:56:11.848Z,49.61
2018-07-08T10:58:42.308Z,49.14
2018-07-08T11:01:12.985Z,45.76
2018-07-08T11:03:43.377Z,48.08
2018-07-08T11:06:13.657Z,44.01
2018-07-08T11:08:44.339Z,47.34
2018-07-08T11:11:14.956Z,46.50
2018-07-08T11:13:45.730Z,45.78
2018-07-08T11:16:16.559Z,48.33
2018-07-08T11:18:47.231Z,45.92
2018-07-08T11:21:17.646Z,46.71
2018-07-08T11:23:48.279Z,49.93
2018-07-08T11:26:19.009Z,45.81
2018-07-08T11:31:34.153Z,45.52
2018-07-08T11:34:04.959Z,44.32
2018-07-08T11:36:35.656Z,44.00
2018-07-08T11:39:07.441Z,45.11
2018-07-08T11:41:38.214Z,46.64
2018-07-08T11:44:09.082Z,46.61
2018-07-08T11:46:39.827Z,46.12
2018-07-08T11:49:10.279Z,48.14
2018-07-08T11:51:40.584Z,49.53
2018-07-08T11:54:11.716Z,47.57
2018-07-08T11:56:42.354Z,45.09
2018-07-08T11:59:13.376Z,45.54
2018-07-08T12:01:43.999Z,43.18
2018-07-08T12:04:14.720Z,46.02
2018-07-08T12:06:45.298Z,44.29
2018-07-08T12:09:16.014Z,41.46
2018-07-08T12:11:46.522Z,42.51
2018-07-08T12:14:17.639Z,45.01
2018-07-08T12:16:48.203Z,43.63
2018-07-08T12:19:18.666Z,44.98
2018-07-08T12:21:49.038Z,47.15
2018-07-08T12:24:19.306Z,43.64
2018-07-08T12:26:49.958Z,43.13
2018-07-08T12:29:20.460Z,41.43
2018-07-08T12:31:52.709Z,42.76
2018-07-08T12:34:23.416Z,44.62
2018-07-08T12:36:54.295Z,44.53
2018-07-08T12:39:24.858Z,44.38
2018-07-08T12:41:55.277Z,44.37
2018-07-08T12:44:26.174Z,40.54
2018-07-08T12:46:56.993Z,41.80
2018-07-08T12:49:27.381Z,42.98
2018-07-08T12:51:58.134Z,43.65
2018-07-08T12:54:29.015Z,40.60
2018-07-08T12:56:59.737Z,40.24
2018-07-08T12:59:30.541Z,44.37
2018-07-08T13:02:01.606Z,42.88
2018-07-08T13:04:32.455Z,40.97
2018-07-08T13:07:03.201Z,44.13
2018-07-08T13:09:34.247Z,41.87
2018-07-08T13:12:04.915Z,42.14
2018-07-08T13:14:35.586Z,43.97
2018-07-08T13:17:06.389Z,40.65
2018-07-08T13:19:36.785Z,37.16
2018-07-08T13:22:07.651Z,37.61
2018-07-08T13:24:38.926Z,40.98
2018-07-08T13:27:09.080Z,42.43
2018-07-08T13:29:39.427Z,38.08
2018-07-08T13:32:09.785Z,38.53
2018-07-08T13:34:39.616Z,38.76
2018-07-08T13:37:10.343Z,37.77
2018-07-08T13:39:41.534Z,39.07
2018-07-08T13:42:12.166Z,39.07
2018-07-08T13:44:42.850Z,38.98
2018-07-08T13:47:13.754Z,39.27
2018-07-08T13:49:44.363Z,36.05
2018-07-08T13:52:15.453Z,36.83
2018-07-08T13:54:46.900Z,37.20
2018-07-08T13:57:16.985Z,34.25
2018-07-08T13:59:47.617Z,36.16
2018-07-08T14:02:18.153Z,35.30
2018-07-08T14:04:49.854Z,40.22
2018-07-08T14:07:21.152Z,35.53
2018-07-08T14:09:51.811Z,34.77
2018-07-08T14:12:22.364Z,36.06
2018-07-08T14:14:53.181Z,33.84
2018-07-08T14:17:38.292Z,39.86
2018-07-08T14:20:09.305Z,34.76
2018-07-08T14:22:39.317Z,34.73
2018-07-08T14:25:09.713Z,33.02
2018-07-08T14:27:40.291Z,34.74
2018-07-08T14:30:11.119Z,33.40
2018-07-08T14:32:41.863Z,28.30
2018-07-08T14:35:12.571Z,30.48
2018-07-08T14:37:43.367Z,30.65
2018-07-08T14:40:13.317Z,30.22
2018-07-08T14:42:43.992Z,25.54
2018-07-08T14:45:14.505Z,31.90
2018-07-08T14:47:44.939Z,32.02
2018-07-08T14:50:15.797Z,28.97
2018-07-08T14:52:46.195Z,26.23
2018-07-08T14:55:16.810Z,30.53
2018-07-08T14:57:47.592Z,26.54
2018-07-08T15:00:18.308Z,24.95
2018-07-08T15:02:49.799Z,26.33
2018-07-08T15:05:20.249Z,26.29
2018-07-08T15:20:44.606Z,26.58
2018-07-08T15:23:15.240Z,27.70
2018-07-08T15:25:46.210Z,26.81
2018-07-08T15:28:17.276Z,27.21
2018-07-08T15:30:47.732Z,26.76
2018-07-08T15:33:18.348Z,30.11
2018-07-08T15:35:49.094Z,29.08
2018-07-08T15:38:19.523Z,29.87
2018-07-08T15:40:50.166Z,27.02
2018-07-08T15:43:20.116Z,26.87
2018-07-08T15:45:50.550Z,27.94
2018-07-08T15:48:20.518Z,26.24
2018-07-08T15:50:51.516Z,25.09
2018-07-08T15:53:21.565Z,28.08
2018-07-08T15:55:52.176Z,28.71
2018-07-08T15:58:22.527Z,28.71
2018-07-08T16:00:53.166Z,26.11
2018-07-08T16:03:23.585Z,27.51
2018-07-08T16:05:54.358Z,28.21
2018-07-08T16:08:25.847Z,25.51
2018-07-08T16:10:56.643Z,26.29
2018-07-08T16:13:27.312Z,26.16
2018-07-08T16:15:57.721Z,28.28
2018-07-08T16:18:28.824Z,28.88
2018-07-08T16:20:59.892Z,26.68
2018-07-08T16:23:30.319Z,27.17
2018-07-08T16:26:00.789Z,28.70
2018-07-08T16:28:32.590Z,29.08
2018-07-08T16:31:03.254Z,28.11
2018-07-08T16:33:34.312Z,26.73
2018-07-08T16:36:05.448Z,29.80
2018-07-08T16:38:36.347Z,31.03
2018-07-08T16:41:07.016Z,30.82
2018-07-08T16:43:37.287Z,31.64
2018-07-08T16:46:08.555Z,32.42
2018-07-08T16:48:38.918Z,31.92
2018-07-08T16:51:09.664Z,31.30
2018-07-08T16:53:41.680Z,32.91
2018-07-08T16:56:12.838Z,33.82
2018-07-08T16:58:43.463Z,33.12
2018-07-08T17:01:14.212Z,34.59
2018-07-08T17:03:44.850Z,32.92
2018-07-08T17:06:15.201Z,32.58
2018-07-08T17:08:45.596Z,34.34
2018-07-08T17:11:16.820Z,34.18
2018-07-08T17:13:47.858Z,30.24
2018-07-08T17:16:18.247Z,30.71
2018-07-08T17:18:48.903Z,32.92
2018-07-08T17:21:19.553Z,34.53
2018-07-08T17:23:49.982Z,33.92
2018-07-08T17:26:20.426Z,33.20
2018-07-08T17:28:51.329Z,33.88
2018-07-08T17:31:22.181Z,34.20
2018-07-08T17:33:52.504Z,37.29
2018-07-08T17:36:23.187Z,35.20
2018-07-08T17:38:53.539Z,33.92
2018-07-08T17:41:24.979Z,34.62
2018-07-08T17:43:55.672Z,34.92
2018-07-08T17:46:25.825Z,36.38
2018-07-08T17:48:56.553Z,34.43
2018-07-08T17:51:27.246Z,34.96
2018-07-08T17:53:57.456Z,35.70
2018-07-08T17:56:28.865Z,36.20
2018-07-08T17:58:59.740Z,35.15
2018-07-08T18:01:30.600Z,35.63
2018-07-08T18:04:00.646Z,36.05
2018-07-08T18:06:31.256Z,36.99
2018-07-08T18:09:02.099Z,37.99
2018-07-08T18:11:32.688Z,37.92
2018-07-08T18:14:03.030Z,39.29
2018-07-08T18:16:33.424Z,37.30
2018-07-08T18:19:04.793Z,39.27
2018-07-08T18:21:35.612Z,39.37
2018-07-08T18:24:06.518Z,39.61
2018-07-08T18:26:37.013Z,39.54
2018-07-08T18:29:07.375Z,39.76
2018-07-08T18:31:41.049Z,40.06
2018-07-08T18:34:11.692Z,40.49
2018-07-08T18:36:42.098Z,41.59
2018-07-08T18:39:12.700Z,42.63
2018-07-08T18:41:43.221Z,42.48
2018-07-08T18:44:13.909Z,41.48
2018-07-08T18:46:44.379Z,41.90
2018-07-08T18:49:14.649Z,41.80
2018-07-08T18:51:45.214Z,44.02
2018-07-08T18:54:16.340Z,43.87
2018-07-08T18:59:23.314Z,44.76
2018-07-08T19:01:53.923Z,45.99
2018-07-08T19:04:24.619Z,44.36
2018-07-08T19:06:55.525Z,45.23
2018-07-08T19:09:26.719Z,47.97
2018-07-08T19:11:56.987Z,46.94
2018-07-08T19:14:27.735Z,45.66
2018-07-08T19:16:58.327Z,47.05
2018-07-08T19:19:29.194Z,46.60
2018-07-08T19:22:00.422Z,47.43
2018-07-08T19:24:30.923Z,48.24
2018-07-08T19:27:01.823Z,47.38
2018-07-08T19:29:32.389Z,47.67
2018-07-08T19:32:04.014Z,47.57
2018-07-08T19:34:34.471Z,48.66
2018-07-08T19:37:05.613Z,48.36
2018-07-08T19:39:36.148Z,49.31
2018-07-08T19:42:06.596Z,48.98
2018-07-08T19:44:37.357Z,49.89
2018-07-08T19:47:08.480Z,51.04
2018-07-08T19:49:39.632Z,50.10
2018-07-08T19:52:09.972Z,51.30
2018-07-08T19:54:40.278Z,53.25
2018-07-08T19:57:11.463Z,54.01
2018-07-08T19:59:42.153Z,54.48
2018-07-08T20:02:13.046Z,55.37
2018-07-08T20:04:43.829Z,55.64
2018-07-08T20:07:14.350Z,56.37
2018-07-08T20:09:44.618Z,56.00
2018-07-08T20:12:15.058Z,53.78
2018-07-08T20:14:45.950Z,54.14
2018-07-08T20:17:16.530Z,53.17
2018-07-08T20:19:47.016Z,53.53
2018-07-08T20:22:17.435Z,53.70
2018-07-08T20:24:48.097Z,54.49
2018-07-08T20:27:18.803Z,54.96
2018-07-08T20:29:49.584Z,54.01
2018-07-08T20:32:20.309Z,54.63
2018-07-08T20:34:51.058Z,55.84
2018-07-08T20:37:21.545Z,55.06
2018-07-08T20:39:53.216Z,55.70
2018-07-08T20:42:23.790Z,55.98
2018-07-08T20:44:54.623Z,55.83
2018-07-08T20:47:24.945Z,57.94
2018-07-08T20:49:55.673Z,57.73
2018-07-08T20:52:26.625Z,58.41
2018-07-08T20:54:57.545Z,59.42
2018-07-08T20:57:28.686Z,60.34
2018-07-08T20:59:59.653Z,60.93
2018-07-08T21:02:30.465Z,60.77
2018-07-08T21:05:01.078Z,60.18
2018-07-08T21:07:32.062Z,60.13
2018-07-08T21:10:03.813Z,60.61
2018-07-08T21:12:34.381Z,61.62
2018-07-08T21:15:05.590Z,60.16
2018-07-08T21:17:36.418Z,61.07
2018-07-08T21:20:06.971Z,60.84
2018-07-08T21:22:37.760Z,61.22
2018-07-08T21:25:08.545Z,61.75
2018-07-08T21:27:39.340Z,62.79
2018-07-08T21:30:10.183Z,63.05
2018-07-08T21:32:40.844Z,61.55
2018-07-08T21:35:12.019Z,62.65
2018-07-08T21:37:42.509Z,62.14
2018-07-08T21:40:13.226Z,63.46
2018-07-08T21:42:43.893Z,63.62
2018-07-08T21:45:15.055Z,63.95
2018-07-08T21:47:45.869Z,64.71
2018-07-08T21:50:16.881Z,65.56
2018-07-08T21:52:47.582Z,64.34
2018-07-08T21:55:18.698Z,65.37
2018-07-08T21:57:49.028Z,65.42
2018-07-08T22:00:20.177Z,66.00
2018-07-08T22:02:50.423Z,65.51
2018-07-08T22:05:21.090Z,66.03
2018-07-08T22:07:56.740Z,65.66
2018-07-08T22:10:30.332Z,65.80
2018-07-08T22:13:02.201Z,66.92
2018-07-08T22:15:32.891Z,66.33
2018-07-08T22:18:03.520Z,65.94
2018-07-08T22:20:34.193Z,66.59
2018-07-08T22:23:04.427Z,67.21
2018-07-08T22:25:34.876Z,67.60
2018-07-08T22:28:05.356Z,68.43
2018-07-08T22:30:36.129Z,68.33
2018-07-08T22:33:07.343Z,69.47
2018-07-08T22:35:38.129Z,69.96
2018-07-08T22:38:08.997Z,70.27
2018-07-08T22:40:39.701Z,71.11
2018-07-08T22:43:10.649Z,70.94
2018-07-08T22:45:41.468Z,70.96
2018-07-08T22:48:12.389Z,71.76
2018-07-08T22:50:42.752Z,72.32
2018-07-08T22:53:13.354Z,72.00
2018-07-08T22:55:44.116Z,72.19
2018-07-08T22:58:14.838Z,72.19
2018-07-08T23:00:55.391Z,72.46
2018-07-08T23:03:57.683Z,73.00
2018-07-08T23:06:28.922Z,71.87
2018-07-08T23:08:59.447Z,72.42
2018-07-08T23:11:30.300Z,72.39
2018-07-08T23:14:01.636Z,72.70
2018-07-08T23:16:32.093Z,72.38
2018-07-08T23:19:02.694Z,73.21
2018-07-08T23:21:32.593Z,73.54
2018-07-08T23:24:03.239Z,72.69
2018-07-08T23:26:33.632Z,72.37
2018-07-08T23:29:04.348Z,71.98
2018-07-08T23:31:34.683Z,73.01
2018-07-08T23:34:05.374Z,73.51
2018-07-08T23:36:35.336Z,74.30
2018-07-08T23:39:06.071Z,75.04
2018-07-08T23:41:36.842Z,75.00
2018-07-08T23:44:07.396Z,75.27
2018-07-08T23:46:38.152Z,75.26
2018-07-08T23:49:09.088Z,74.98
2018-07-08T23:51:39.412Z,74.71
2018-07-08T23:54:10.079Z,74.50
2018-07-08T23:56:40.752Z,74.31
2018-07-08T23:59:11.283Z,74.34
